Time;durP1;ratioP1;P1;durP2;ratioP2;P2;SDS_P1;SDS_P2;PMS_P1;PMS_P2;Temp;Humidity;BMP_temperature;BMP_pressure;BME280_temperature;BME280_humidity;BME280_pressure;Samples;Min_cycle;Max_cycle;Signal;HPM_P1;HPM_P2
2021/12/27 00:00:28;;;;;;;51.20;21.90;;;;;;;;;;5049019;28;20033;-55
2021/12/27 00:02:59;;;;;;;49.05;20.83;;;;;;;;;;5054217;28;20036;-60
2021/12/27 00:05:25;;;;;;;48.72;20.23;;;;;;;;;;5051724;28;20120;-58
2021/12/27 00:07:51;;;;;;;50.83;20.55;;;;;;;;;;5051939;28;20048;-58
2021/12/27 00:10:18;;;;;;;48.40;23.05;;;;;;;;;;5055055;28;20606;-57
2021/12/27 00:12:44;;;;;;;45.78;21.38;;;;;;;;;;5048600;28;20032;-61
2021/12/27 00:15:10;;;;;;;52.63;23.10;;;;;;;;;;5056924;28;20103;-61
2021/12/27 00:17:39;;;;;;;49.17;22.25;;;;;;;;;;5053338;28;20124;-62
2021/12/27 00:20:05;;;;;;;45.08;20.67;;;;;;;;;;5051878;28;20059;-57
2021/12/27 00:22:31;;;;;;;45.75;20.65;;;;;;;;;;5055879;28;20033;-58
2021/12/27 00:24:57;;;;;;;50.08;21.40;;;;;;;;;;5055549;28;20049;-59
2021/12/27 00:27:23;;;;;;;50.15;21.77;;;;;;;;;;5057106;28;20084;-61
2021/12/27 00:29:48;;;;;;;50.60;21.95;;;;;;;;;;5052850;28;20119;-54
2021/12/27 00:32:14;;;;;;;52.22;22.38;;;;;;;;;;5052694;28;20048;-58
2021/12/27 00:34:40;;;;;;;47.42;22.77;;;;;;;;;;5056516;28;20087;-58
2021/12/27 00:37:07;;;;;;;50.40;23.30;;;;;;;;;;5048948;28;20050;-59
2021/12/27 00:39:34;;;;;;;53.72;24.88;;;;;;;;;;5058204;28;20076;-59
2021/12/27 00:42:00;;;;;;;55.35;23.38;;;;;;;;;;5054247;28;20036;-57
2021/12/27 00:44:26;;;;;;;52.60;23.90;;;;;;;;;;5052885;28;20044;-56
2021/12/27 00:46:52;;;;;;;54.75;25.10;;;;;;;;;;5055709;28;20109;-55
2021/12/27 00:49:18;;;;;;;52.30;23.42;;;;;;;;;;5048945;28;20032;-55
2021/12/27 00:51:44;;;;;;;54.53;24.13;;;;;;;;;;5057736;28;20191;-61
2021/12/27 00:54:09;;;;;;;52.45;23.48;;;;;;;;;;5051204;28;20052;-57
2021/12/27 00:56:35;;;;;;;53.60;24.77;;;;;;;;;;5054395;28;20040;-58
2021/12/27 00:59:01;;;;;;;54.05;25.30;;;;;;;;;;5055286;28;20036;-61
2021/12/27 01:01:26;;;;;;;54.53;23.98;;;;;;;;;;5049066;28;20092;-53
2021/12/27 01:03:52;;;;;;;56.03;25.60;;;;;;;;;;5059573;28;20611;-57
2021/12/27 01:06:18;;;;;;;57.00;24.88;;;;;;;;;;5051492;28;20093;-56
2021/12/27 01:08:43;;;;;;;55.75;23.95;;;;;;;;;;5051376;28;20071;-59
2021/12/27 01:11:24;;;;;;;56.90;24.45;;;;;;;;;;5054606;28;20071;-57
2021/12/27 01:14:08;;;;;;;65.75;24.95;;;;;;;;;;5048688;28;20043;-55
2021/12/27 01:16:34;;;;;;;48.25;23.33;;;;;;;;;;5056398;28;20139;-59
2021/12/27 01:18:59;;;;;;;52.92;23.48;;;;;;;;;;5052740;28;20114;-54
2021/12/27 01:21:26;;;;;;;55.55;25.38;;;;;;;;;;5051862;28;20047;-56
2021/12/27 01:23:52;;;;;;;55.83;24.00;;;;;;;;;;5052357;28;20040;-54
2021/12/27 01:26:18;;;;;;;55.97;23.70;;;;;;;;;;5046900;28;20037;-53
2021/12/27 01:28:44;;;;;;;52.38;22.45;;;;;;;;;;5056782;28;20045;-59
2021/12/27 01:31:10;;;;;;;55.20;25.48;;;;;;;;;;5049030;28;20036;-58
2021/12/27 01:33:36;;;;;;;55.30;24.80;;;;;;;;;;5051361;28;20056;-57
2021/12/27 01:36:04;;;;;;;57.97;26.48;;;;;;;;;;5052079;28;20124;-59
2021/12/27 01:38:30;;;;;;;61.50;26.08;;;;;;;;;;5047701;28;20037;-59
2021/12/27 01:40:57;;;;;;;58.05;25.40;;;;;;;;;;5056489;28;20068;-59
2021/12/27 01:43:25;;;;;;;57.88;26.15;;;;;;;;;;5049878;28;20119;-56
2021/12/27 01:45:52;;;;;;;58.20;25.25;;;;;;;;;;5059561;28;20086;-58
2021/12/27 01:48:21;;;;;;;64.35;29.40;;;;;;;;;;5052242;28;20068;-54
2021/12/27 01:50:48;;;;;;;56.60;26.35;;;;;;;;;;5049683;28;20036;-54
2021/12/27 01:53:15;;;;;;;62.65;26.25;;;;;;;;;;5055399;28;20033;-57
2021/12/27 01:55:41;;;;;;;57.95;27.65;;;;;;;;;;5048987;28;20055;-57
2021/12/27 01:58:08;;;;;;;54.88;26.05;;;;;;;;;;5054112;28;20068;-57
2021/12/27 02:00:36;;;;;;;62.40;28.25;;;;;;;;;;5050793;28;20056;-58
2021/12/27 02:03:03;;;;;;;63.47;28.02;;;;;;;;;;5049663;28;20085;-60
2021/12/27 02:05:29;;;;;;;58.50;26.90;;;;;;;;;;5055387;28;20028;-58
2021/12/27 02:07:55;;;;;;;62.75;28.35;;;;;;;;;;5048366;28;20037;-57
2021/12/27 02:10:20;;;;;;;67.40;28.55;;;;;;;;;;5059280;28;20048;-58
2021/12/27 02:12:46;;;;;;;63.88;28.20;;;;;;;;;;5051154;28;20452;-58
2021/12/27 02:15:13;;;;;;;62.10;28.00;;;;;;;;;;5051066;28;20045;-54
2021/12/27 02:17:41;;;;;;;56.05;26.85;;;;;;;;;;5053322;28;20037;-60
2021/12/27 02:20:09;;;;;;;57.90;26.35;;;;;;;;;;5047409;28;20040;-59
2021/12/27 02:22:37;;;;;;;66.53;27.40;;;;;;;;;;5057036;28;20032;-56
2021/12/27 02:25:05;;;;;;;67.50;29.85;;;;;;;;;;5050723;28;20049;-56
2021/12/27 02:27:31;;;;;;;61.67;28.67;;;;;;;;;;5051634;28;20034;-55
2021/12/27 02:29:57;;;;;;;65.93;29.33;;;;;;;;;;5053890;28;20140;-60
2021/12/27 02:32:23;;;;;;;65.78;29.92;;;;;;;;;;5047186;28;20412;-56
2021/12/27 02:34:48;;;;;;;63.03;28.23;;;;;;;;;;5058231;28;20044;-53
2021/12/27 02:37:14;;;;;;;65.10;28.98;;;;;;;;;;5049858;28;20061;-60
2021/12/27 02:39:40;;;;;;;69.25;29.25;;;;;;;;;;5053051;28;20037;-59
2021/12/27 02:42:06;;;;;;;63.97;28.23;;;;;;;;;;5052477;28;20112;-54
2021/12/27 02:44:34;;;;;;;65.68;28.60;;;;;;;;;;5047122;28;20079;-58
2021/12/27 02:47:00;;;;;;;63.33;28.85;;;;;;;;;;5054713;28;20496;-56
2021/12/27 02:49:26;;;;;;;65.45;30.63;;;;;;;;;;5053729;28;20048;-55
2021/12/27 02:51:52;;;;;;;62.70;29.05;;;;;;;;;;5059865;28;20072;-56
2021/12/27 02:54:18;;;;;;;64.88;29.40;;;;;;;;;;5057367;28;20143;-57
2021/12/27 02:56:44;;;;;;;61.90;28.67;;;;;;;;;;5051333;28;20124;-53
2021/12/27 02:59:10;;;;;;;64.72;28.33;;;;;;;;;;5057710;28;20504;-58
2021/12/27 03:01:35;;;;;;;70.75;30.88;;;;;;;;;;5053753;28;20052;-56
2021/12/27 03:04:01;;;;;;;61.10;28.48;;;;;;;;;;5052468;28;20128;-52
2021/12/27 03:06:27;;;;;;;67.53;28.83;;;;;;;;;;5056856;28;23916;-56
2021/12/27 03:08:52;;;;;;;64.35;27.70;;;;;;;;;;5050944;28;20114;-62
2021/12/27 03:11:18;;;;;;;68.43;30.00;;;;;;;;;;5057711;28;20168;-58
2021/12/27 03:13:46;;;;;;;65.45;28.90;;;;;;;;;;5053166;28;20064;-56
2021/12/27 03:16:14;;;;;;;60.53;28.85;;;;;;;;;;5053803;28;20146;-57
2021/12/27 03:18:43;;;;;;;61.50;28.58;;;;;;;;;;5056377;28;20037;-55
2021/12/27 03:21:09;;;;;;;66.32;30.73;;;;;;;;;;5050227;28;20033;-60
2021/12/27 03:23:37;;;;;;;68.00;28.55;;;;;;;;;;5059678;28;20045;-54
2021/12/27 03:26:04;;;;;;;65.90;29.88;;;;;;;;;;5052577;28;20053;-57
2021/12/27 03:28:30;;;;;;;65.97;30.45;;;;;;;;;;5055149;28;20037;-59
2021/12/27 03:30:57;;;;;;;64.60;29.05;;;;;;;;;;5056086;28;20040;-56
2021/12/27 03:33:23;;;;;;;65.57;31.02;;;;;;;;;;5052062;28;20037;-56
2021/12/27 03:36:02;;;;;;;65.63;30.42;;;;;;;;;;5060044;28;20060;-56
2021/12/27 03:38:37;;;;;;;68.20;29.73;;;;;;;;;;5052894;28;20064;-53
2021/12/27 03:41:05;;;;;;;62.50;29.38;;;;;;;;;;5056630;28;20041;-56
2021/12/27 03:43:31;;;;;;;76.00;31.27;;;;;;;;;;5054084;28;20083;-58
2021/12/27 03:45:57;;;;;;;64.78;31.08;;;;;;;;;;5051630;28;20033;-55
2021/12/27 03:48:23;;;;;;;69.32;31.30;;;;;;;;;;5055987;28;20131;-53
2021/12/27 03:50:49;;;;;;;65.75;30.02;;;;;;;;;;5051386;28;20033;-57
2021/12/27 03:53:15;;;;;;;64.60;30.02;;;;;;;;;;5057414;28;20061;-57
2021/12/27 03:55:40;;;;;;;69.53;33.75;;;;;;;;;;5054618;28;20033;-60
2021/12/27 03:58:12;;;;;;;65.80;30.80;;;;;;;;;;5051488;28;20593;-60
2021/12/27 04:01:15;;;;;;;67.25;31.92;;;;;;;;;;5057428;28;20041;-56
2021/12/27 04:03:32;;;;;;;68.55;30.90;;;;;;;;;;5046975;28;20041;-55
2021/12/27 04:05:58;;;;;;;70.47;31.63;;;;;;;;;;5059596;28;20045;-58
2021/12/27 04:08:24;;;;;;;62.55;29.80;;;;;;;;;;5051616;28;20041;-56
2021/12/27 04:10:50;;;;;;;69.82;31.50;;;;;;;;;;5056597;28;20177;-58
2021/12/27 04:13:21;;;;;;;70.47;32.25;;;;;;;;;;5055369;28;20443;-55
2021/12/27 04:15:47;;;;;;;66.55;32.40;;;;;;;;;;5051219;28;20048;-55
2021/12/27 04:18:13;;;;;;;66.88;31.98;;;;;;;;;;5057858;28;20037;-55
2021/12/27 04:20:39;;;;;;;67.47;31.02;;;;;;;;;;5051365;28;20122;-55
2021/12/27 04:23:05;;;;;;;69.22;31.88;;;;;;;;;;5056823;28;20052;-55
2021/12/27 04:25:31;;;;;;;70.22;31.73;;;;;;;;;;5055335;28;20508;-59
2021/12/27 04:27:57;;;;;;;72.97;31.20;;;;;;;;;;5051037;28;20070;-57
2021/12/27 04:30:22;;;;;;;63.67;29.95;;;;;;;;;;5056290;28;20066;-55
2021/12/27 04:32:49;;;;;;;67.00;31.25;;;;;;;;;;5051502;28;20125;-58
2021/12/27 04:35:16;;;;;;;70.40;30.05;;;;;;;;;;5057701;28;20048;-57
2021/12/27 04:37:42;;;;;;;67.82;31.23;;;;;;;;;;5053751;28;20037;-58
2021/12/27 04:40:10;;;;;;;72.10;32.05;;;;;;;;;;5049538;28;20483;-61
2021/12/27 04:42:37;;;;;;;64.28;29.88;;;;;;;;;;5054321;28;20035;-59
2021/12/27 04:45:04;;;;;;;67.68;31.08;;;;;;;;;;5050336;28;20060;-52
2021/12/27 04:47:30;;;;;;;69.05;32.10;;;;;;;;;;5058286;28;20037;-55
2021/12/27 04:49:55;;;;;;;62.45;31.67;;;;;;;;;;5053715;28;20037;-54
2021/12/27 04:52:21;;;;;;;69.97;33.55;;;;;;;;;;5048122;28;20049;-56
2021/12/27 04:54:47;;;;;;;66.57;31.35;;;;;;;;;;5057754;28;20731;-55
2021/12/27 04:57:13;;;;;;;72.47;32.78;;;;;;;;;;5049727;28;20150;-59
2021/12/27 04:59:38;;;;;;;66.22;32.38;;;;;;;;;;5053745;28;20134;-51
2021/12/27 05:02:04;;;;;;;67.05;29.27;;;;;;;;;;5053610;28;20040;-59
2021/12/27 05:04:31;;;;;;;71.13;30.75;;;;;;;;;;5047828;28;20131;-56
2021/12/27 05:06:56;;;;;;;72.45;33.08;;;;;;;;;;5057066;28;20033;-52
2021/12/27 05:09:22;;;;;;;71.15;32.22;;;;;;;;;;5050236;28;20134;-57
2021/12/27 05:11:48;;;;;;;70.70;32.22;;;;;;;;;;5055080;28;20047;-56
2021/12/27 05:14:14;;;;;;;65.05;31.77;;;;;;;;;;5052531;28;20036;-58
2021/12/27 05:16:40;;;;;;;67.80;30.60;;;;;;;;;;5049003;28;20045;-53
2021/12/27 05:19:06;;;;;;;66.45;30.40;;;;;;;;;;5055647;28;20044;-57
2021/12/27 05:21:32;;;;;;;67.18;30.85;;;;;;;;;;5055761;28;20035;-56
2021/12/27 05:23:58;;;;;;;75.90;32.97;;;;;;;;;;5054070;28;20237;-56
2021/12/27 05:26:23;;;;;;;67.03;30.83;;;;;;;;;;5052911;28;20050;-55
2021/12/27 05:28:49;;;;;;;67.15;30.52;;;;;;;;;;5049246;28;20068;-58
2021/12/27 05:31:15;;;;;;;64.70;31.48;;;;;;;;;;5056702;28;20575;-57
2021/12/27 05:33:40;;;;;;;61.90;30.15;;;;;;;;;;5049145;28;20040;-56
2021/12/27 05:36:06;;;;;;;68.05;30.88;;;;;;;;;;5054751;28;20098;-54
2021/12/27 05:38:32;;;;;;;67.95;31.20;;;;;;;;;;5052346;28;20120;-58
2021/12/27 05:40:58;;;;;;;70.47;32.25;;;;;;;;;;5049228;28;20037;-60
2021/12/27 05:43:24;;;;;;;67.35;30.48;;;;;;;;;;5056118;28;20068;-61
2021/12/27 05:45:51;;;;;;;66.90;31.90;;;;;;;;;;5049427;28;20033;-58
2021/12/27 05:48:17;;;;;;;68.80;32.30;;;;;;;;;;5056093;28;20041;-57
2021/12/27 05:50:43;;;;;;;67.68;32.35;;;;;;;;;;5051940;28;20044;-59
2021/12/27 05:53:09;;;;;;;69.82;33.00;;;;;;;;;;5051078;28;20115;-60
2021/12/27 05:55:35;;;;;;;79.10;32.63;;;;;;;;;;5054907;28;20043;-60
2021/12/27 05:58:01;;;;;;;70.40;32.15;;;;;;;;;;5047908;28;20052;-61
2021/12/27 06:00:28;;;;;;;66.65;30.55;;;;;;;;;;5055015;28;20499;-58
2021/12/27 06:02:55;;;;;;;69.63;33.10;;;;;;;;;;5049519;28;20809;-54
2021/12/27 06:05:24;;;;;;;68.43;31.45;;;;;;;;;;5052408;28;20480;-56
2021/12/27 06:07:50;;;;;;;72.63;32.15;;;;;;;;;;5055119;28;20507;-58
2021/12/27 06:10:17;;;;;;;65.05;30.65;;;;;;;;;;5047582;28;20044;-59
2021/12/27 06:12:43;;;;;;;70.68;32.55;;;;;;;;;;5058160;28;20216;-57
2021/12/27 06:15:09;;;;;;;68.63;32.13;;;;;;;;;;5051597;28;20068;-59
2021/12/27 06:17:35;;;;;;;74.28;32.65;;;;;;;;;;5052790;28;20048;-58
2021/12/27 06:20:05;;;;;;;62.00;30.20;;;;;;;;;;5052778;28;20044;-57
2021/12/27 06:22:31;;;;;;;70.38;33.08;;;;;;;;;;5050230;28;20377;-55
2021/12/27 06:25:00;;;;;;;64.18;30.33;;;;;;;;;;5062631;28;20508;-54
2021/12/27 06:27:26;;;;;;;68.72;31.25;;;;;;;;;;5052963;28;20138;-54
2021/12/27 06:29:51;;;;;;;67.57;31.55;;;;;;;;;;5053567;28;20584;-56
2021/12/27 06:32:17;;;;;;;73.63;31.52;;;;;;;;;;5058479;28;20050;-55
2021/12/27 06:34:43;;;;;;;68.85;31.60;;;;;;;;;;5052377;28;20114;-56
2021/12/27 06:37:09;;;;;;;75.10;32.40;;;;;;;;;;5058267;28;20114;-57
2021/12/27 06:39:34;;;;;;;62.58;32.20;;;;;;;;;;5054605;28;20044;-60
2021/12/27 06:42:00;;;;;;;68.97;31.77;;;;;;;;;;5052793;28;20051;-60
2021/12/27 06:44:26;;;;;;;69.63;32.75;;;;;;;;;;5058282;28;20596;-56
2021/12/27 06:46:52;;;;;;;71.88;32.40;;;;;;;;;;5052001;28;20142;-59
2021/12/27 06:49:18;;;;;;;63.03;32.75;;;;;;;;;;5056844;28;20048;-57
2021/12/27 06:51:44;;;;;;;68.20;32.03;;;;;;;;;;5054289;28;20045;-55
2021/12/27 06:54:09;;;;;;;63.25;29.40;;;;;;;;;;5054331;28;20056;-55
2021/12/27 06:56:35;;;;;;;67.32;32.58;;;;;;;;;;5058327;28;20138;-57
2021/12/27 06:59:02;;;;;;;66.53;32.50;;;;;;;;;;5054769;28;20048;-53
2021/12/27 07:01:28;;;;;;;64.75;30.63;;;;;;;;;;5058742;28;20439;-58
2021/12/27 07:03:54;;;;;;;70.30;33.22;;;;;;;;;;5051805;28;20086;-57
2021/12/27 07:06:19;;;;;;;63.17;29.73;;;;;;;;;;5054678;28;20075;-55
2021/12/27 07:08:47;;;;;;;72.35;31.65;;;;;;;;;;5058010;28;20134;-58
2021/12/27 07:11:13;;;;;;;66.60;30.73;;;;;;;;;;5050636;28;20045;-54
2021/12/27 07:13:39;;;;;;;66.32;29.73;;;;;;;;;;5059999;28;20115;-60
2021/12/27 07:16:05;;;;;;;67.60;31.50;;;;;;;;;;5053329;28;20449;-57
2021/12/27 07:18:31;;;;;;;67.25;32.05;;;;;;;;;;5053969;28;20053;-53
2021/12/27 07:20:57;;;;;;;69.20;31.13;;;;;;;;;;5057147;28;20039;-51
2021/12/27 07:23:22;;;;;;;69.90;31.67;;;;;;;;;;5049362;28;20163;-55
2021/12/27 07:25:48;;;;;;;65.75;31.60;;;;;;;;;;5060914;28;20044;-58
2021/12/27 07:28:14;;;;;;;67.78;31.65;;;;;;;;;;5051749;28;20040;-53
2021/12/27 07:30:40;;;;;;;68.95;33.70;;;;;;;;;;5055810;28;20799;-58
2021/12/27 07:33:06;;;;;;;67.60;32.47;;;;;;;;;;5054612;28;20033;-55
2021/12/27 07:35:31;;;;;;;75.65;33.05;;;;;;;;;;5049092;28;20037;-57
2021/12/27 07:37:57;;;;;;;75.13;32.78;;;;;;;;;;5059896;28;20132;-51
2021/12/27 07:40:23;;;;;;;65.40;30.83;;;;;;;;;;5053188;28;20446;-58
2021/12/27 07:42:48;;;;;;;62.80;31.13;;;;;;;;;;5056669;28;20072;-58
2021/12/27 07:45:14;;;;;;;65.35;31.23;;;;;;;;;;5056441;28;20037;-45
2021/12/27 07:47:40;;;;;;;66.80;31.35;;;;;;;;;;5050534;28;20569;-46
2021/12/27 07:50:06;;;;;;;66.70;32.42;;;;;;;;;;5060784;28;20076;-46
2021/12/27 07:52:32;;;;;;;63.80;32.20;;;;;;;;;;5052427;28;20131;-49
2021/12/27 07:54:58;;;;;;;63.67;31.00;;;;;;;;;;5055032;28;20028;-51
2021/12/27 07:57:23;;;;;;;69.28;31.05;;;;;;;;;;5055920;28;20094;-49
2021/12/27 07:59:50;;;;;;;67.90;31.42;;;;;;;;;;5051358;28;20148;-49
2021/12/27 08:02:16;;;;;;;67.50;32.33;;;;;;;;;;5058608;28;20148;-44
2021/12/27 08:04:42;;;;;;;68.45;33.13;;;;;;;;;;5045158;28;20029;-44
2021/12/27 08:07:08;;;;;;;63.05;30.85;;;;;;;;;;5057263;28;20029;-47
2021/12/27 08:09:34;;;;;;;65.22;32.72;;;;;;;;;;5054705;28;20048;-45
2021/12/27 08:11:59;;;;;;;64.57;30.98;;;;;;;;;;5062471;28;20060;-48
2021/12/27 08:14:25;;;;;;;69.65;31.88;;;;;;;;;;5058476;28;20072;-49
2021/12/27 08:16:51;;;;;;;70.03;31.65;;;;;;;;;;5050079;28;20042;-48
2021/12/27 08:19:16;;;;;;;65.70;31.45;;;;;;;;;;5052180;28;20049;-45
2021/12/27 08:21:42;;;;;;;62.20;29.65;;;;;;;;;;5053467;28;20461;-43
2021/12/27 08:24:09;;;;;;;73.20;33.53;;;;;;;;;;5048224;28;20094;-43
2021/12/27 08:26:35;;;;;;;67.03;32.25;;;;;;;;;;5056730;28;20744;-45
2021/12/27 08:29:03;;;;;;;67.72;31.55;;;;;;;;;;5052393;28;20136;-44
2021/12/27 08:31:29;;;;;;;62.90;27.63;;;;;;;;;;5064496;28;20803;-46
2021/12/27 08:33:55;;;;;;;66.43;32.40;;;;;;;;;;5050447;28;20064;-44
2021/12/27 08:36:21;;;;;;;60.33;29.05;;;;;;;;;;5057174;28;20096;-45
2021/12/27 08:38:48;;;;;;;73.32;31.30;;;;;;;;;;5052903;28;20037;-50
2021/12/27 08:41:15;;;;;;;66.47;31.65;;;;;;;;;;5050606;28;20064;-42
2021/12/27 08:43:41;;;;;;;64.15;28.45;;;;;;;;;;5052449;28;20036;-44
2021/12/27 08:46:07;;;;;;;63.38;31.33;;;;;;;;;;5049286;28;20045;-45
2021/12/27 08:48:32;;;;;;;66.30;28.25;;;;;;;;;;5054518;28;20033;-43
2021/12/27 08:50:58;;;;;;;62.92;32.05;;;;;;;;;;5055865;28;20143;-49
2021/12/27 08:53:24;;;;;;;61.85;28.00;;;;;;;;;;5048610;28;20041;-43
2021/12/27 08:55:50;;;;;;;57.40;28.15;;;;;;;;;;5054264;28;20040;-47
2021/12/27 08:58:16;;;;;;;59.42;29.75;;;;;;;;;;5053287;28;20863;-45
2021/12/27 09:00:42;;;;;;;67.38;30.65;;;;;;;;;;5052989;28;20094;-44
2021/12/27 09:03:07;;;;;;;62.00;30.23;;;;;;;;;;5054732;28;20049;-45
2021/12/27 09:05:33;;;;;;;63.42;30.02;;;;;;;;;;5053741;28;20041;-44
2021/12/27 09:07:59;;;;;;;66.95;30.67;;;;;;;;;;5044927;28;20416;-46
2021/12/27 09:10:24;;;;;;;59.80;29.25;;;;;;;;;;5057639;28;20141;-46
2021/12/27 09:12:50;;;;;;;66.00;30.63;;;;;;;;;;5055679;28;20033;-46
2021/12/27 09:15:16;;;;;;;62.05;30.83;;;;;;;;;;5047615;28;20366;-45
2021/12/27 09:17:42;;;;;;;62.03;30.17;;;;;;;;;;5054560;28;20389;-43
2021/12/27 09:20:09;;;;;;;52.20;25.13;;;;;;;;;;5056935;28;20086;-46
2021/12/27 09:22:36;;;;;;;58.60;28.45;;;;;;;;;;5053816;28;20039;-47
2021/12/27 09:25:01;;;;;;;64.30;32.05;;;;;;;;;;5051927;28;20520;-46
2021/12/27 09:27:27;;;;;;;70.88;31.10;;;;;;;;;;5057081;28;20094;-48
2021/12/27 09:29:53;;;;;;;59.97;28.48;;;;;;;;;;5051236;28;20060;-48
2021/12/27 09:32:18;;;;;;;68.20;31.38;;;;;;;;;;5056154;28;20049;-46
2021/12/27 09:34:44;;;;;;;67.70;31.30;;;;;;;;;;5049484;28;20106;-51
2021/12/27 09:37:10;;;;;;;66.90;29.40;;;;;;;;;;5049992;28;20083;-46
2021/12/27 09:39:36;;;;;;;58.28;30.63;;;;;;;;;;5050116;28;20040;-43
2021/12/27 09:42:02;;;;;;;62.30;30.70;;;;;;;;;;5050176;28;20061;-43
2021/12/27 09:44:29;;;;;;;60.53;28.05;;;;;;;;;;5050546;28;20041;-46
2021/12/27 09:46:55;;;;;;;61.67;29.65;;;;;;;;;;5050062;28;20037;-44
2021/12/27 09:49:22;;;;;;;66.28;29.98;;;;;;;;;;5054978;28;20058;-49
2021/12/27 09:51:48;;;;;;;65.18;31.73;;;;;;;;;;5054793;28;20044;-45
2021/12/27 09:54:14;;;;;;;65.63;30.58;;;;;;;;;;5042833;28;20033;-47
2021/12/27 09:56:41;;;;;;;64.35;31.67;;;;;;;;;;5058206;28;20041;-50
2021/12/27 09:59:07;;;;;;;59.80;30.35;;;;;;;;;;5051423;28;20041;-41
2021/12/27 10:01:33;;;;;;;66.15;30.52;;;;;;;;;;5055777;28;20416;-48
2021/12/27 10:04:01;;;;;;;62.38;31.02;;;;;;;;;;5053234;28;20389;-48
2021/12/27 10:06:28;;;;;;;56.92;28.20;;;;;;;;;;5047215;28;20420;-47
2021/12/27 10:08:56;;;;;;;61.10;30.77;;;;;;;;;;5058657;28;20037;-47
2021/12/27 10:11:25;;;;;;;63.78;30.52;;;;;;;;;;5048820;28;20033;-46
2021/12/27 10:14:07;;;;;;;64.68;30.45;;;;;;;;;;5049005;28;20487;-41
2021/12/27 10:16:38;;;;;;;63.30;29.02;;;;;;;;;;5052083;28;20045;-43
2021/12/27 10:19:07;;;;;;;59.17;29.98;;;;;;;;;;5048111;28;20041;-46
2021/12/27 10:21:34;;;;;;;60.22;28.08;;;;;;;;;;5055776;28;20045;-47
2021/12/27 10:24:05;;;;;;;63.47;28.73;;;;;;;;;;5049403;28;20033;-45
2021/12/27 10:26:32;;;;;;;62.75;30.23;;;;;;;;;;5050034;28;20044;-41
2021/12/27 10:29:20;;;;;;;65.85;31.00;;;;;;;;;;5043884;28;20083;-41
2021/12/27 10:32:11;;;;;;;53.22;27.27;;;;;;;;;;5046384;28;20055;-46
2021/12/27 10:34:50;;;;;;;53.45;27.77;;;;;;;;;;5043049;28;20095;-45
2021/12/27 10:37:30;;;;;;;58.20;31.05;;;;;;;;;;5039540;28;20049;-45
2021/12/27 10:40:16;;;;;;;55.95;28.40;;;;;;;;;;5050533;28;20431;-45
2021/12/27 10:42:45;;;;;;;62.65;28.83;;;;;;;;;;5039879;28;20765;-47
2021/12/27 10:45:18;;;;;;;65.95;32.20;;;;;;;;;;5050654;28;20033;-40
2021/12/27 10:47:49;;;;;;;63.00;30.17;;;;;;;;;;5043724;28;20059;-48
2021/12/27 10:50:17;;;;;;;58.95;29.75;;;;;;;;;;5046181;28;20032;-49
2021/12/27 10:52:46;;;;;;;62.80;29.88;;;;;;;;;;5048294;28;20121;-42
2021/12/27 10:55:14;;;;;;;57.80;29.88;;;;;;;;;;5044135;28;20564;-42
2021/12/27 10:57:39;;;;;;;61.03;28.73;;;;;;;;;;5049470;28;20377;-43
2021/12/27 11:00:20;;;;;;;57.83;29.40;;;;;;;;;;5045067;28;20076;-46
2021/12/27 11:02:45;;;;;;;53.05;27.50;;;;;;;;;;5042563;28;20062;-47
2021/12/27 11:05:16;;;;;;;54.85;27.05;;;;;;;;;;5048398;28;20419;-44
2021/12/27 11:07:42;;;;;;;57.63;29.00;;;;;;;;;;5043711;28;20037;-45
2021/12/27 11:10:08;;;;;;;55.10;28.15;;;;;;;;;;5050285;28;20040;-43
2021/12/27 11:12:34;;;;;;;60.30;28.00;;;;;;;;;;5048118;28;20516;-43
2021/12/27 11:14:59;;;;;;;62.13;30.70;;;;;;;;;;5052106;28;20035;-46
2021/12/27 11:17:25;;;;;;;57.92;29.60;;;;;;;;;;5052216;28;20098;-45
2021/12/27 11:19:51;;;;;;;62.70;29.52;;;;;;;;;;5045420;28;20056;-44
2021/12/27 11:22:16;;;;;;;56.67;29.13;;;;;;;;;;5045179;28;20098;-45
2021/12/27 11:24:44;;;;;;;57.03;29.40;;;;;;;;;;5049546;28;20416;-44
2021/12/27 11:27:14;;;;;;;55.25;28.55;;;;;;;;;;5054046;28;20435;-49
2021/12/27 11:29:40;;;;;;;59.20;27.73;;;;;;;;;;5047167;28;20045;-48
2021/12/27 11:32:18;;;;;;;60.67;29.67;;;;;;;;;;5048263;28;20045;-41
2021/12/27 11:34:59;;;;;;;59.35;29.20;;;;;;;;;;5050771;28;20087;-48
2021/12/27 11:37:44;;;;;;;58.28;28.90;;;;;;;;;;5046939;28;20629;-49
2021/12/27 11:40:12;;;;;;;57.53;29.30;;;;;;;;;;5050542;28;20143;-43
2021/12/27 11:42:52;;;;;;;57.00;28.85;;;;;;;;;;5049766;28;20045;-44
2021/12/27 11:45:40;;;;;;;57.25;30.45;;;;;;;;;;5051261;28;20044;-45
2021/12/27 11:48:26;;;;;;;55.03;27.92;;;;;;;;;;5048401;28;20657;-46
2021/12/27 11:50:57;;;;;;;56.97;29.27;;;;;;;;;;5048345;28;20147;-44
2021/12/27 11:53:28;;;;;;;58.30;29.27;;;;;;;;;;5051082;28;20044;-45
2021/12/27 11:55:54;;;;;;;56.53;29.25;;;;;;;;;;5055014;28;20075;-43
2021/12/27 11:58:35;;;;;;;57.70;29.05;;;;;;;;;;5055334;28;20522;-45
2021/12/27 12:01:24;;;;;;;58.97;29.30;;;;;;;;;;5051642;28;20033;-43
2021/12/27 12:03:54;;;;;;;61.10;29.90;;;;;;;;;;5055746;28;20496;-44
2021/12/27 12:06:42;;;;;;;54.70;28.90;;;;;;;;;;5049891;28;20065;-45
2021/12/27 12:09:16;;;;;;;54.35;27.38;;;;;;;;;;5040903;28;20045;-43
2021/12/27 12:11:42;;;;;;;53.45;29.48;;;;;;;;;;5049336;28;20044;-46
2021/12/27 12:14:29;;;;;;;53.95;29.73;;;;;;;;;;5051873;28;20078;-45
2021/12/27 12:16:55;;;;;;;51.80;27.65;;;;;;;;;;5056249;28;20045;-41
2021/12/27 12:19:41;;;;;;;58.58;29.05;;;;;;;;;;5048671;28;20044;-41
2021/12/27 12:22:08;;;;;;;51.58;26.15;;;;;;;;;;5053700;28;20123;-48
2021/12/27 12:24:34;;;;;;;54.47;29.88;;;;;;;;;;5053071;28;20039;-48
2021/12/27 12:27:09;;;;;;;59.60;28.17;;;;;;;;;;5049855;28;20037;-43
2021/12/27 12:29:43;;;;;;;56.35;27.15;;;;;;;;;;5037424;28;20071;-45
2021/12/27 12:32:12;;;;;;;56.97;29.05;;;;;;;;;;5047521;28;20120;-46
2021/12/27 12:34:39;;;;;;;57.03;28.63;;;;;;;;;;5056993;28;20060;-47
2021/12/27 12:37:10;;;;;;;55.38;27.60;;;;;;;;;;5050850;28;20033;-48
2021/12/27 12:39:50;;;;;;;60.53;28.45;;;;;;;;;;5053112;28;20040;-46
2021/12/27 12:42:25;;;;;;;62.20;28.88;;;;;;;;;;5055133;28;20170;-45
2021/12/27 12:44:59;;;;;;;55.67;29.65;;;;;;;;;;5051923;28;20570;-46
2021/12/27 12:47:27;;;;;;;57.00;28.30;;;;;;;;;;5056497;28;20044;-46
2021/12/27 12:49:52;;;;;;;57.92;28.17;;;;;;;;;;5051627;28;20035;-49
2021/12/27 12:52:20;;;;;;;61.03;28.73;;;;;;;;;;5058631;28;20447;-49
2021/12/27 12:54:46;;;;;;;53.92;28.98;;;;;;;;;;5054387;28;20036;-45
2021/12/27 12:57:12;;;;;;;58.10;28.63;;;;;;;;;;5053119;28;20035;-48
2021/12/27 12:59:41;;;;;;;60.40;29.80;;;;;;;;;;5058449;28;20737;-46
2021/12/27 13:02:16;;;;;;;55.60;28.65;;;;;;;;;;5058587;28;20055;-49
2021/12/27 13:04:45;;;;;;;56.90;30.57;;;;;;;;;;5059151;28;20569;-49
2021/12/27 13:07:12;;;;;;;57.00;29.70;;;;;;;;;;5053853;28;20302;-45
2021/12/27 13:09:39;;;;;;;58.67;29.83;;;;;;;;;;5053567;28;20064;-49
2021/12/27 13:12:05;;;;;;;59.13;27.35;;;;;;;;;;5057613;28;20040;-45
2021/12/27 13:14:31;;;;;;;53.42;29.02;;;;;;;;;;5049360;28;20039;-44
2021/12/27 13:16:58;;;;;;;55.95;25.85;;;;;;;;;;5060683;28;20094;-49
2021/12/27 13:19:24;;;;;;;57.00;29.67;;;;;;;;;;5053770;28;20068;-47
2021/12/27 13:21:49;;;;;;;62.67;29.80;;;;;;;;;;5055206;28;20029;-48
2021/12/27 13:24:15;;;;;;;57.20;28.98;;;;;;;;;;5057552;28;20661;-47
2021/12/27 13:26:41;;;;;;;53.83;27.80;;;;;;;;;;5050904;28;20044;-45
2021/12/27 13:29:06;;;;;;;60.47;28.52;;;;;;;;;;5061280;28;20063;-44
2021/12/27 13:31:32;;;;;;;57.22;28.15;;;;;;;;;;5052410;28;20065;-47
2021/12/27 13:34:06;;;;;;;53.22;27.95;;;;;;;;;;5054095;28;20567;-44
2021/12/27 13:36:35;;;;;;;57.08;28.88;;;;;;;;;;5056733;28;20037;-48
2021/12/27 13:39:07;;;;;;;65.05;29.10;;;;;;;;;;5049301;28;20062;-47
2021/12/27 13:41:36;;;;;;;57.40;31.27;;;;;;;;;;5057176;28;20037;-47
2021/12/27 13:44:05;;;;;;;59.95;29.15;;;;;;;;;;5053366;28;20534;-47
2021/12/27 13:46:33;;;;;;;61.08;28.85;;;;;;;;;;5052425;28;20552;-50
2021/12/27 13:49:02;;;;;;;55.92;28.23;;;;;;;;;;5054871;28;20043;-50
2021/12/27 13:51:30;;;;;;;58.53;29.05;;;;;;;;;;5048193;28;20044;-46
2021/12/27 13:54:07;;;;;;;56.28;29.08;;;;;;;;;;5058172;28;20032;-44
2021/12/27 13:56:36;;;;;;;59.75;29.63;;;;;;;;;;5052011;28;20044;-48
2021/12/27 13:59:09;;;;;;;62.78;30.00;;;;;;;;;;5061428;28;20074;-48
2021/12/27 14:01:36;;;;;;;62.22;29.23;;;;;;;;;;5053546;28;20025;-44
2021/12/27 14:04:17;;;;;;;58.50;30.52;;;;;;;;;;5057325;28;20067;-47
2021/12/27 14:06:44;;;;;;;64.38;29.45;;;;;;;;;;5056766;28;20056;-45
2021/12/27 14:09:10;;;;;;;58.92;29.75;;;;;;;;;;5048235;28;20524;-44
2021/12/27 14:11:56;;;;;;;53.10;28.17;;;;;;;;;;5058164;28;20067;-48
2021/12/27 14:14:38;;;;;;;57.80;27.27;;;;;;;;;;5051999;28;20090;-45
2021/12/27 14:17:09;;;;;;;52.72;25.40;;;;;;;;;;5054199;28;20105;-46
2021/12/27 14:19:35;;;;;;;63.15;30.60;;;;;;;;;;5052554;28;20314;-44